Map

Track Data

SID SEASON NUMBER BASIN SUBBASIN NAME ISO_TIME NATURE LAT LON WMO_WIND WMO_PRES WMO_AGENCY TRACK_TYPE DIST2LAND LANDFALL IFLAG USA_AGENCY USA_ATCF_ID USA_LAT USA_LON USA_RECORD USA_STATUS USA_WIND USA_PRES USA_SSHS USA_R34_NE USA_R34_SE USA_R34_SW USA_R34_NW USA_R50_NE USA_R50_SE USA_R50_SW USA_R50_NW USA_R64_NE USA_R64_SE USA_R64_SW USA_R64_NW USA_POCI USA_ROCI USA_RMW USA_EYE TOKYO_LAT TOKYO_LON TOKYO_GRADE TOKYO_WIND TOKYO_PRES TOKYO_R50_DIR TOKYO_R50_LONG TOKYO_R50_SHORT TOKYO_R30_DIR TOKYO_R30_LONG TOKYO_R30_SHORT TOKYO_LAND CMA_LAT CMA_LON CMA_CAT CMA_WIND CMA_PRES HKO_LAT HKO_LON HKO_CAT HKO_WIND HKO_PRES NEWDELHI_LAT NEWDELHI_LON NEWDELHI_GRADE NEWDELHI_WIND NEWDELHI_PRES NEWDELHI_CI NEWDELHI_DP NEWDELHI_POCI REUNION_LAT REUNION_LON REUNION_TYPE REUNION_WIND REUNION_PRES REUNION_TNUM REUNION_CI REUNION_RMW REUNION_R34_NE REUNION_R34_SE REUNION_R34_SW REUNION_R34_NW REUNION_R50_NE REUNION_R50_SE REUNION_R50_SW REUNION_R50_NW REUNION_R64_NE REUNION_R64_SE REUNION_R64_SW REUNION_R64_NW BOM_LAT BOM_LON BOM_TYPE BOM_WIND BOM_PRES BOM_TNUM BOM_CI BOM_RMW BOM_R34_NE BOM_R34_SE BOM_R34_SW BOM_R34_NW BOM_R50_NE BOM_R50_SE BOM_R50_SW BOM_R50_NW BOM_R64_NE BOM_R64_SE BOM_R64_SW BOM_R64_NW BOM_ROCI BOM_POCI BOM_EYE BOM_POS_METHOD BOM_PRES_METHOD NADI_LAT NADI_LON NADI_CAT NADI_WIND NADI_PRES WELLINGTON_LAT WELLINGTON_LON WELLINGTON_WIND WELLINGTON_PRES DS824_LAT DS824_LON DS824_STAGE DS824_WIND DS824_PRES TD9636_LAT TD9636_LON TD9636_STAGE TD9636_WIND TD9636_PRES TD9635_LAT TD9635_LON TD9635_WIND TD9635_PRES TD9635_ROCI NEUMANN_LAT NEUMANN_LON NEUMANN_CLASS NEUMANN_WIND NEUMANN_PRES MLC_LAT MLC_LON MLC_CLASS MLC_WIND MLC_PRES USA_GUST BOM_GUST BOM_GUST_PER REUNION_GUST REUNION_GUST_PER USA_SEAHGT USA_SEARAD_NE USA_SEARAD_SE USA_SEARAD_SW USA_SEARAD_NW STORM_SPEED STORM_DIR
1967206N15153 1967 55 WP MM ELLEN 1967-07-25 00:00:00 NR 15.0000 152.600 main 1991 1976 ___O__________ -1 15.0000 152.600 TD 25 1002 8 255
1967206N15153 1967 55 WP MM ELLEN 1967-07-25 03:00:00 NR 14.8902 152.187 main 1976 1946 ___P__________ -1 14.8902 152.187 TD 25 1001 8 243
1967206N15153 1967 55 WP MM ELLEN 1967-07-25 06:00:00 TS 14.6500 151.900 main 1946 1905 O_OO_____O____ jtwc_wp WP371967 14.3000 152.000 TD -1 14.9000 152.000 1 29 1000 14.8000 151.800 TD 25 1000 14.3000 152.000 TC 7 230
1967206N15153 1967 55 WP MM ELLEN 1967-07-25 09:00:00 TS 14.4320 151.623 main 1905 1878 P_PP_____P____ WP371967 13.9825 151.757 TD -1 14.7101 151.677 1 29 1000 14.7425 151.463 TD 25 1000 13.9825 151.757 TC 7 227
1967206N15153 1967 55 WP MM ELLEN 1967-07-25 12:00:00 TS 14.1923 151.385 main 1878 1851 O_OO_____O____ jtwc_wp WP371967 13.7000 151.500 TD -1 14.5000 151.400 1 29 1000 14.7000 151.200 TD 25 1000 13.7000 151.500 TC 6 224
1967206N15153 1967 55 WP MM ELLEN 1967-07-25 15:00:00 TS 13.9693 151.168 main 1851 1822 P_PP_____P____ WP371967 13.4775 151.215 TD -1 14.2574 151.193 1 29 1000 14.6649 151.050 TD 27 997 13.4775 151.215 TC 6 229
1967206N15153 1967 55 WP MM ELLEN 1967-07-25 18:00:00 TS 13.8000 150.925 main 1822 1794 O_OO_____O____ jtwc_wp WP371967 13.3000 150.900 TD -1 14.0000 151.000 1 29 1000 14.6000 150.900 TD 30 995 13.3000 150.900 TC 7 236
1967206N15153 1967 55 WP MM ELLEN 1967-07-25 21:00:00 TS 13.6044 150.609 main 1794 1776 P_PP_____P____ WP371967 13.1126 150.520 TD -1 13.7350 150.742 1 29 1000 14.4574 150.652 TD 30 995 13.1126 150.520 TC 7 240
1967206N15153 1967 55 WP MM ELLEN 1967-07-26 00:00:00 TS 13.4500 150.300 main 1776 1761 O_OO_____O____ jtwc_wp WP371967 13.0000 150.200 TD -1 13.5000 150.500 1 29 1000 14.3000 150.300 TD 30 995 13.0000 150.200 TC 6 247
1967206N15153 1967 55 WP MM ELLEN 1967-07-26 03:00:00 TS 13.3825 150.065 main 1761 1758 P_PP_____P____ WP371967 13.0199 150.070 TD -1 13.3124 150.343 1 29 999 14.1778 149.777 TD 30 992 13.0199 150.070 TC 4 260
1967206N15153 1967 55 WP MM ELLEN 1967-07-26 06:00:00 TS 13.3750 149.875 main 1758 1755 O_OO_____O____ jtwc_wp WP371967 13.1000 150.000 TD -1 13.2000 150.200 1 29 999 14.1000 149.300 TD 30 990 13.1000 150.000 TC 3 267
1967206N15153 1967 55 WP MM ELLEN 1967-07-26 09:00:00 TS 13.3624 149.718 main 1755 1753 P_PP_____P____ WP371967 13.1125 149.880 TD -1 13.1550 150.007 1 29 998 14.0698 149.105 TD 30 990 13.1125 149.880 TC 3 279
1967206N15153 1967 55 WP MM ELLEN 1967-07-26 12:00:00 TS 13.4250 149.550 main 1753 1751 O_OO_____O____ jtwc_wp WP371967 13.2000 149.700 TD -1 13.2000 149.800 1 29 998 14.1000 149.000 TD 30 990 13.2000 149.700 TC 5 296
1967206N15153 1967 55 WP MM ELLEN 1967-07-26 15:00:00 TS 13.5701 149.281 main 1771 1770 P_PP_____P____ WP371967 13.4251 149.378 TD -1 13.2750 149.607 1 29 998 14.1551 148.763 TD 30 990 13.4251 149.378 TC 6 311
1967206N15153 1967 55 WP MM ELLEN 1967-07-26 18:00:00 TS 13.8500 149.050 main 1802 1791 O_OO_____O____ jtwc_wp WP371967 13.8000 149.100 TD -1 13.5000 149.400 1 29 998 14.3000 148.600 TD 30 990 13.8000 149.100 TC 8 336
1967206N15153 1967 55 WP MM ELLEN 1967-07-26 21:00:00 TS 14.2706 148.954 main 1845 1844 P_PP_____P____ WP371967 14.3199 149.032 TD -1 13.9101 149.098 1 29 998 14.5325 148.655 TD 32 987 14.3199 149.032 TC 10 356
1967206N15153 1967 55 WP MM ELLEN 1967-07-27 00:00:00 TS 14.8000 148.975 main 1901 1901 O_OO_____O____ jtwc_wp WP371967 14.9000 149.100 TD -1 14.5000 148.900 1 29 998 14.9000 148.800 TS 35 985 14.9000 149.100 TC 11 8
1967206N15153 1967 55 WP MM ELLEN 1967-07-27 03:00:00 TS 15.3694 149.107 main 1969 1969 P_PP_____P____ WP371967 15.4075 149.265 TD -1 15.2575 149.019 1 29 998 15.4050 148.878 TS 35 985 15.4075 149.265 TC 12 12
1967206N15153 1967 55 WP MM ELLEN 1967-07-27 06:00:00 TS 15.9571 149.229 main 2037 2037 O_OO_____O____ jtwc_wp WP371967 15.9000 149.400 TD -1 16.0000 149.200 1 29 998 16.0000 149.000 TS 35 985 15.9000 149.400 TC 11 7
1967206N15153 1967 55 WP MM ELLEN 1967-07-27 09:00:00 TS 16.4925 149.258 main 2093 2093 P_PP_____P____ WP371967 16.3486 149.291 TD -1 16.5175 149.188 1 29 998 16.5626 149.228 TS 35 985 16.3975 149.358 TC 15 8
1967206N15153 1967 55 WP MM ELLEN 1967-07-27 12:00:00 TS 17.3833 149.450 998 tokyo main 2173 2101 OOOO_____O____ jtwc_wp WP371967 16.9000 149.200 TD -1 19.2000 150.300 2 998 0 0 0 16.9000 149.100 1 29 998 17.2000 149.500 TS 35 985 16.9000 149.200 TC 18 14
1967206N15153 1967 55 WP MM ELLEN 1967-07-27 15:00:00 TS 18.2545 149.714 main 2091 2040 PPPP__________ WP371967 17.8181 149.475 TD -1 19.5800 150.392 2 997 0 0 17.2300 149.022 1 29 998 17.9474 149.728 TS 37 983 TC 16 15
1967206N15153 1967 55 WP MM ELLEN 1967-07-27 18:00:00 TS 18.9429 149.900 996 tokyo main 2040 1980 POOO__________ WP371967 18.9331 149.948 -1 20.0000 150.500 2 996 0 0 0 17.5000 148.900 1 29 998 18.8000 150.000 TS 40 982 14 15
1967206N15153 1967 55 WP MM ELLEN 1967-07-27 21:00:00 TS 19.6407 150.102 main 1980 1917 PPPP__________ WP371967 20.0562 150.474 -1 20.4850 150.635 2 994 0 0 17.8700 148.723 1 29 998 19.7727 150.414 TS 42 982 16 19
1967206N15153 1967 55 WP MM ELLEN 1967-07-28 00:00:00 TS 20.4421 150.458 992 tokyo main 1922 1866 OOOO______OO__ jtwc_wp WP101967 21.0000 150.900 50 -1 21.0000 150.800 9 992 0 0 0 18.0000 148.500 1 29 999 20.7000 150.800 TS 45 983 21.0000 150.900 2 50 21.0000 150.900 50 983 60 16 22
1967206N15153 1967 55 WP MM ELLEN 1967-07-28 03:00:00 TS 21.1486 150.765 main 1872 1816 PPPP______PP__ WP101967 21.6287 151.078 52 -1 21.5225 150.992 9 991 0 0 17.6476 148.254 1 1000 21.4323 150.988 TS 47 984 21.5001 151.043 2 51 21.5876 151.052 52 984 90 15 22
1967206N15153 1967 55 WP MM ELLEN 1967-07-28 06:00:00 TS 21.8176 151.055 990 tokyo main 1821 1776 OOOO______PO__ jtwc_wp WP101967 22.1000 151.200 55 -1 22.0000 151.200 9 990 0 0 0 17.0000 148.000 0 1002 22.0000 151.100 STS 50 986 21.9801 151.189 2 52 22.1000 151.200 55 985 120 14 22
1967206N15153 1967 55 WP MM ELLEN 1967-07-28 09:00:00 TS 22.4371 151.338 main 1776 1751 PP_P______PP__ WP101967 22.4875 151.343 55 -1 22.3725 151.408 9 989 0 0 0 22.4750 151.258 STS 50 987 22.4200 151.341 2 53 22.4875 151.343 55 986 150 10 23
1967206N15153 1967 55 WP MM ELLEN 1967-07-28 12:00:00 TS 22.7714 151.500 988 tokyo main 1751 1736 OO_O______OO__ jtwc_wp WP101967 22.8000 151.500 55 -1 22.7000 151.600 9 988 0 0 0 22.8000 151.400 STS 50 988 22.8000 151.500 2 55 22.8000 151.500 55 988 180 7 27
1967206N15153 1967 55 WP MM ELLEN 1967-07-28 15:00:00 TS 23.0867 151.701 main 1736 1724 PP_P______PP__ WP101967 23.1375 151.707 57 -1 23.0875 151.780 9 988 0 0 22.9725 151.500 STS 52 987 23.1044 151.666 2 57 23.1375 151.707 57 987 150 7 32
1967206N15153 1967 55 WP MM ELLEN 1967-07-28 18:00:00 TS 23.3336 151.876 988 tokyo main 1730 1713 OO_O______PO__ jtwc_wp WP101967 23.4000 151.900 60 -1 23.4000 151.900 9 988 0 0 0 23.1000 151.600 STS 55 987 23.3350 151.830 2 60 23.4000 151.900 60 987 120 5 29
1967206N15153 1967 55 WP MM ELLEN 1967-07-28 21:00:00 TS 23.5115 151.962 main 1719 1710 PP_P______PP__ WP101967 23.5450 152.030 62 -1 23.5524 151.893 9 987 0 0 23.3500 151.750 STS 55 985 23.4981 151.979 2 62 23.5450 152.030 62 985 150 3 24
1967206N15153 1967 55 WP MM ELLEN 1967-07-29 00:00:00 TS 23.6143 152.014 986 tokyo main 1710 1701 OO_O______OO__ jtwc_wp WP101967 23.6000 152.100 65 -1 23.6000 151.900 9 986 0 0 0 23.6000 151.900 STS 55 984 23.6000 152.100 3 65 23.6000 152.100 65 984 180 2 32
1967206N15153 1967 55 WP MM ELLEN 1967-07-29 03:00:00 TS 23.6722 152.076 main 1708 1708 PP_P______PP__ WP101967 23.6150 152.100 65 -1 23.6151 152.085 9 985 0 0 23.8024 151.993 STS 55 984 23.6978 152.142 3 65 23.6150 152.100 65 984 150 1 63
1967206N15153 1967 55 WP MM ELLEN 1967-07-29 06:00:00 TS 23.6764 152.152 984 tokyo main 1714 1714 OO_O______PO__ jtwc_wp WP101967 23.6000 152.100 65 -1 23.6000 152.300 9 984 0 0 0 23.9000 152.100 STS 55 984 23.7345 152.162 3 65 23.6000 152.100 65 984 120 2 87
1967206N15153 1967 55 WP MM ELLEN 1967-07-29 09:00:00 TS 23.6798 152.243 main 1714 1714 PP_P______PP__ WP101967 23.6374 152.155 65 -1 23.6374 152.400 9 984 0 0 23.8675 152.285 STS 57 984 23.7040 152.201 3 65 23.6374 152.155 65 984 150 2 110
1967206N15153 1967 55 WP MM ELLEN 1967-07-29 12:00:00 TS 23.6000 152.386 984 tokyo main 1736 1736 OO_O______OO__ jtwc_wp WP101967 23.6000 152.300 65 -1 23.6000 152.500 9 984 0 0 0 23.7000 152.500 STS 60 985 23.6000 152.300 4 65 23.6000 152.300 65 984 180 5 133
1967206N15153 1967 55 WP MM ELLEN 1967-07-29 15:00:00 TS 23.3759 152.605 main 1766 1766 PP_P______PP__ WP101967 23.3876 152.578 65 -1 23.3875 152.678 9 984 0 0 23.4150 152.708 STS 60 984 23.3932 152.483 4 65 23.3876 152.578 65 983 180 7 139
1967206N15153 1967 55 WP MM ELLEN 1967-07-29 18:00:00 TS 23.0889 152.862 984 tokyo main 1811 1811 OO_O______PO__ jtwc_wp WP101967 23.1000 152.900 65 -1 23.1000 152.900 9 984 0 0 0 23.1000 152.900 STS 60 983 23.1221 152.731 4 65 23.1000 152.900 65 983 180 7 141
1967206N15153 1967 55 WP MM ELLEN 1967-07-29 21:00:00 TS 22.8273 153.083 main 1850 1850 PP_P______PP__ WP101967 22.8348 153.135 65 -1 22.8349 153.120 9 983 0 0 22.8847 153.012 STS 60 982 22.8399 153.039 4 65 22.8348 153.135 65 982 210 7 137
1967206N15153 1967 55 WP MM ELLEN 1967-07-30 00:00:00 TS 22.6000 153.357 982 tokyo main 1887 1887 OO_O______OO__ jtwc_wp WP101967 22.6000 153.400 65 -1 22.6000 153.400 9 982 0 0 0 22.7000 153.200 STS 60 981 22.6000 153.400 4 65 22.6000 153.400 65 981 240 7 125
1967206N15153 1967 55 WP MM ELLEN 1967-07-30 03:00:00 TS 22.4062 153.732 main 1923 1923 PP_P______PP__ WP101967 22.4124 153.763 67 -1 22.3898 153.748 9 980 0 0 22.4550 153.591 STS 60 978 22.4140 153.801 4 67 22.4124 153.763 67 979 240 8 111
1967206N15153 1967 55 WP MM ELLEN 1967-07-30 06:00:00 TS 22.2979 154.193 978 tokyo main 1965 1965 OO_O______PO__ jtwc_wp WP101967 22.3000 154.200 70 -1 22.3000 154.200 9 978 0 0 0 22.3000 154.100 STS 60 975 22.2853 154.249 4 70 22.3000 154.200 70 977 240 9 97
1967206N15153 1967 55 WP MM ELLEN 1967-07-30 09:00:00 TS 22.2910 154.718 main 1998 1998 PP_P______PP__ WP101967 22.2400 154.685 72 -1 22.3979 154.800 9 977 0 0 22.3325 154.642 STS 62 975 22.2389 154.723 4 72 22.2400 154.685 72 976 270 10 84
1967206N15153 1967 55 WP MM ELLEN 1967-07-30 12:00:00 TS 22.4000 155.257 976 tokyo main 2030 2029 OO_O______OO__ jtwc_wp WP101967 22.3000 155.200 75 -1 22.6000 155.400 9 976 0 0 0 22.5000 155.200 T 65 975 22.3000 155.200 4 75 22.3000 155.200 75 975 300 10 72
1967206N15153 1967 55 WP MM ELLEN 1967-07-30 15:00:00 TS 22.5982 155.744 main 2042 2041 PP_P______PP__ WP101967 22.4975 155.715 75 -1 22.7845 155.815 9 975 0 0 22.7274 155.722 T 65 975 22.4561 155.701 4 76 22.4975 155.715 75 974 330 10 61
1967206N15153 1967 55 WP MM ELLEN 1967-07-30 18:00:00 TS 22.8744 156.199 974 tokyo main 2053 2053 OO_O______PO__ jtwc_wp WP101967 22.8000 156.200 75 -1 23.0000 156.200 9 974 0 0 0 23.0000 156.200 T 65 975 22.7208 156.195 4 77 22.8000 156.200 75 973 360 10 57
1967206N15153 1967 55 WP MM ELLEN 1967-07-30 21:00:00 TS 23.1479 156.670 main 2071 2061 PP_P______PP__ WP101967 23.1200 156.645 77 -1 23.1904 156.752 9 972 0 0 23.1975 156.668 T 67 972 23.0750 156.642 4 78 23.1200 156.645 77 971 330 10 51
1967206N15153 1967 55 WP MM ELLEN 1967-07-31 00:00:00 TS 23.5000 157.043 970 tokyo main 2061 2044 OO_O______OO__ jtwc_wp WP101967 23.5000 157.000 80 -1 23.5000 157.200 9 970 0 0 0 23.5000 157.000 T 70 970 23.5000 157.000 4 80 23.5000 157.000 80 970 300 10 33
1967206N15153 1967 55 WP MM ELLEN 1967-07-31 03:00:00 TS 23.9685 157.248 main 2036 2005 PP_P______PP__ WP101967 23.9124 157.253 77 -1 24.0622 157.340 9 970 0 0 24.0698 157.103 T 67 970 23.9555 157.247 4 77 23.9124 157.253 77 971 300 10 14
1967206N15153 1967 55 WP MM ELLEN 1967-07-31 06:00:00 TS 24.5106 157.329 970 tokyo main 2005 1976 OO_O______PO__ jtwc_wp WP101967 24.4000 157.400 75 -1 24.7000 157.300 9 970 0 0 0 24.7000 157.100 T 65 970 24.4742 157.400 4 75 24.4000 157.400 75 972 300 11 6
1967206N15153 1967 55 WP MM ELLEN 1967-07-31 09:00:00 TS 25.0583 157.368 main 1968 1925 PP_P______PP__ WP101967 24.9850 157.480 72 -1 25.2224 157.260 9 971 0 0 25.1500 157.180 T 62 972 25.0308 157.478 4 72 24.9850 157.480 72 973 300 11 0
1967206N15153 1967 55 WP MM ELLEN 1967-07-31 12:00:00 TS 25.6143 157.329 972 tokyo main 1925 1882 OO_O______OO__ jtwc_wp WP101967 25.6000 157.500 70 -1 25.7000 157.100 9 972 0 0 0 25.6000 157.200 STS 60 975 25.6000 157.500 4 70 25.6000 157.500 70 975 300 11 353
1967206N15153 1967 55 WP MM ELLEN 1967-07-31 15:00:00 TS 26.1434 157.214 main 1882 1839 PP_P______PP__ WP101967 26.1575 157.522 70 -1 26.1279 156.728 9 972 0 0 26.1926 157.066 STS 60 975 26.1183 157.525 4 68 26.1575 157.522 70 974 300 11 349
1967206N15153 1967 55 WP MM ELLEN 1967-07-31 18:00:00 TS 26.6782 157.085 972 tokyo main 1833 1791 OO_O______PO__ jtwc_wp WP101967 26.7000 157.500 70 -1 26.6000 156.400 9 972 0 0 0 26.8000 156.900 STS 60 975 26.6473 157.497 4 67 26.7000 157.500 70 974 300 11 351
1967206N15153 1967 55 WP MM ELLEN 1967-07-31 21:00:00 TS 27.2228 157.030 main 1791 1753 PP_P______PP__ WP101967 27.2275 157.422 67 -1 27.2197 156.338 9 973 0 0 27.2849 156.849 STS 57 975 27.2027 157.421 4 66 27.2275 157.422 67 974 270 11 356
1967206N15153 1967 55 WP MM ELLEN 1967-08-01 00:00:00 TS 27.8143 157.000 975 tokyo main 1753 1716 OO_O______OO__ jtwc_wp WP101967 27.8000 157.300 65 -1 27.9000 156.500 9 975 0 0 0 27.8000 156.800 STS 55 975 27.8000 157.300 4 65 27.8000 157.300 65 975 240 13 359
1967206N15153 1967 55 WP MM ELLEN 1967-08-01 03:00:00 TS 28.4855 156.994 main 1710 1661 PP_P______PP__ WP101967 28.4775 157.172 62 -1 28.5430 156.979 9 976 0 0 28.4851 156.658 STS 55 977 28.4528 157.159 4 62 28.4775 157.172 62 976 210 14 357
1967206N15153 1967 55 WP MM ELLEN 1967-08-01 06:00:00 TS 29.1925 156.925 978 tokyo main 1661 1612 OO_O______PO__ jtwc_wp WP101967 29.2000 157.000 60 -1 29.2000 157.300 9 978 0 0 0 29.2000 156.500 STS 55 980 29.1475 156.974 4 60 29.2000 157.000 60 978 180 14 350
1967206N15153 1967 55 WP MM ELLEN 1967-08-01 09:00:00 TS 29.8738 156.699 main 1607 1551 PP_P______PP__ WP101967 29.9000 156.772 57 -1 29.8934 156.886 9 978 0 0 29.7924 156.399 STS 52 980 29.8684 156.752 4 57 29.9000 156.772 57 978 180 15 342
1967206N15153 1967 55 WP MM ELLEN 1967-08-01 12:00:00 TS 30.5714 156.414 978 tokyo main 1546 1500 OO_O______OO__ jtwc_wp WP101967 30.6000 156.500 55 -1 30.6000 156.300 9 978 0 0 0 30.4000 156.300 STS 50 980 30.6000 156.500 2 55 30.6000 156.500 55 978 180 15 343
1967206N15153 1967 55 WP MM ELLEN 1967-08-01 15:00:00 TS 31.2889 156.197 main 1496 1449 PP_P______PP__ WP101967 31.2925 156.207 52 -1 31.2619 156.140 9 978 0 0 31.0973 156.194 STS 47 977 31.2809 156.258 2 53 31.2925 156.207 52 979 150 15 345
1967206N15153 1967 55 WP MM ELLEN 1967-08-01 18:00:00 TS 32.0535 155.955 978 tokyo main 1445 1393 OO_O______PO__ jtwc_wp WP101967 32.0000 155.900 50 -1 32.0000 156.000 9 978 0 0 0 31.9000 156.000 TS 45 975 31.9743 155.984 2 52 32.0000 155.900 50 980 120 17 344
1967206N15153 1967 55 WP MM ELLEN 1967-08-01 21:00:00 TS 32.8795 155.659 main 1390 1331 PP_P______PP__ WP101967 32.7270 155.643 50 -1 32.9278 155.589 9 978 0 0 32.8276 155.645 TS 45 975 32.7056 155.669 2 51 32.7270 155.643 50 980 150 18 341
1967206N15153 1967 55 WP MM ELLEN 1967-08-02 00:00:00 TS 33.7429 155.271 978 tokyo main 1331 1247 OO_O______OO__ jtwc_wp WP101967 33.5000 155.300 50 -1 33.9000 155.100 9 978 0 0 0 33.8000 155.200 TS 45 975 33.5000 155.300 2 50 33.5000 155.300 50 981 180 19 336
1967206N15153 1967 55 WP MM ELLEN 1967-08-02 03:00:00 TS 34.5985 154.749 main 1240 1143 PP_P______PP__ WP101967 34.3057 154.716 50 -1 34.7643 154.728 9 978 0 0 34.7296 154.779 TS 45 977 34.3747 154.869 2 48 34.3057 154.716 50 981 150 20 333
1967206N15153 1967 55 WP MM ELLEN 1967-08-02 06:00:00 TS 35.4902 154.179 978 tokyo main 1134 1028 OO_O______PO__ jtwc_wp WP101967 35.2000 154.100 50 -1 35.6000 154.300 9 978 0 0 0 35.6000 154.300 TS 45 980 35.3149 154.384 2 47 35.2000 154.100 50 982 120 20 335
1967206N15153 1967 55 WP MM ELLEN 1967-08-02 09:00:00 TS 36.4327 153.712 main 1028 924 PP_P______PP__ WP101967 36.3227 153.780 47 -1 36.4579 153.673 9 979 0 0 36.3726 153.714 TS 42 983 36.2977 153.857 2 46 36.2146 153.646 47 984 120 20 336
1967206N15153 1967 55 WP MM ELLEN 1967-08-02 12:00:00 TS 37.3000 153.191 980 tokyo main 924 841 OO_O______OO__ jtwc_wp WP101967 37.3000 153.300 45 -1 37.3000 153.000 9 980 0 0 0 37.1000 153.100 TS 40 987 37.3000 153.300 2 45 37.3000 153.300 45 987 120 17 325
1967206N15153 1967 55 WP MM ELLEN 1967-08-02 15:00:00 TS 37.8292 152.462 main 841 745 PP_P__________ WP101967 37.4703 152.295 42 -1 38.1140 152.462 9 981 0 0 37.8572 152.534 TS 40 988 2 17 314
1967206N15153 1967 55 WP MM ELLEN 1967-08-02 18:00:00 TS 38.5000 151.600 982 tokyo main 731 575 OO_O__________ jtwc_wp WP101967 38.0000 151.000 40 -1 38.9000 151.900 9 982 0 0 0 38.6000 152.000 TS 40 990 2 25 322
1967206N15153 1967 55 WP MM ELLEN 1967-08-02 21:00:00 TS 39.7811 150.514 main 561 409 PP_P__________ WP101967 40.1947 149.437 37 -1 39.5914 151.077 9 983 0 0 39.2251 151.461 TS 40 990 2 31 329
1967206N15153 1967 55 WP MM ELLEN 1967-08-03 00:00:00 TS 41.1800 149.540 984 tokyo main 396 306 OO_O__________ jtwc_wp WP101967 42.5000 148.000 35 -1 40.4000 150.400 9 984 0 0 0 40.0000 151.000 TS 40 990 27 336
1967206N15153 1967 55 WP MM ELLEN 1967-08-03 03:00:00 TS 42.2206 149.047 main 302 218 PP_P__________ WP101967 43.4329 147.330 35 -1 41.5315 150.170 9 985 0 0 41.1675 150.598 TS 40 990 20 349
1967206N15153 1967 55 WP MM ELLEN 1967-08-03 06:00:00 TS 43.1471 149.035 986 tokyo main 218 141 OO_O__________ jtwc_wp WP101967 44.0000 147.000 35 -1 42.8000 150.300 9 986 0 0 0 42.5000 150.400 TS 40 990 20 8
1967206N15153 1967 55 WP MM ELLEN 1967-08-03 09:00:00 TS 44.1941 149.431 main 131 59 PP_P__________ WP101967 44.8775 146.563 32 -1 44.0457 150.714 9 986 0 0 43.7776 150.505 TS 40 990 23 23
1967206N15153 1967 55 WP MM ELLEN 1967-08-03 12:00:00 TS 45.2545 150.255 986 tokyo main 57 57 OO_O__________ jtwc_wp WP101967 46.0000 146.000 30 -1 45.2000 151.200 9 986 0 0 0 45.0000 150.800 TS 40 990 23 38
1967206N15153 1967 55 WP MM ELLEN 1967-08-03 15:00:00 TS 46.0006 151.462 main 85 84 _P____________ WP101967 -1 46.0546 151.385 9 988 0 0 TS 20 27
1967206N15153 1967 55 WP MM ELLEN 1967-08-03 18:00:00 ET 47.0000 151.550 990 tokyo main 135 135 _O____________ -1 47.0000 151.500 9 990 0 0 0 24 5
1967206N15153 1967 55 WP MM ELLEN 1967-08-03 21:00:00 ET 48.4177 151.760 main 276 228 _P____________ -1 48.4103 151.734 9 991 0 0 30 6
1967206N15153 1967 55 WP MM ELLEN 1967-08-04 00:00:00 ET 50.0000 152.000 992 tokyo main 227 219 _O____________ -1 50.0000 152.000 9 992 0 0 0 31 5
1967206N15153 1967 55 WP MM ELLEN 1967-08-04 03:00:00 ET 51.5320 152.165 main 248 241 _P____________ -1 51.5355 152.128 9 992 0 0 30 6
1967206N15153 1967 55 WP MM ELLEN 1967-08-04 06:00:00 ET 53.0000 152.500 992 tokyo main 240 161 _O____________ -1 53.0000 152.500 9 992 0 0 0 29 14
1967206N15153 1967 55 WP MM ELLEN 1967-08-04 09:00:00 NR 54.3594 153.379 main 153 60 _P____________ -1 54.3594 153.379 9 993 0 0 28 28
1967206N15153 1967 55 WP MM ELLEN 1967-08-04 12:00:00 NR 55.5000 154.800 994 tokyo main 56 0 _O____________ -1 55.5000 154.800 9 994 0 0 0 27 43
1967206N15153 1967 55 WP MM ELLEN 1967-08-04 15:00:00 NR 56.3647 156.717 main 0 0 _P____________ -1 56.3647 156.717 9 994 0 0 27 57
1967206N15153 1967 55 WP MM ELLEN 1967-08-04 18:00:00 ET 57.0000 158.900 994 tokyo main 0 0 _O____________ -1 57.0000 158.900 6 994 0 0 0 26 61
1967206N15153 1967 55 WP MM ELLEN 1967-08-04 21:00:00 ET 57.6052 160.883 main 0 0 _P____________ -1 57.6052 160.883 6 995 0 0 24 66
1967206N15153 1967 55 WP MM ELLEN 1967-08-05 00:00:00 ET 58.0000 163.000 996 tokyo main 12 12 _O____________ -1 58.0000 163.000 6 996 0 0 0 25 79
1967206N15153 1967 55 WP MM ELLEN 1967-08-05 03:00:00 ET 58.0735 165.447 main 99 99 _P____________ -1 58.0735 165.447 6 996 0 0 26 90
1967206N15153 1967 55 WP MM ELLEN 1967-08-05 06:00:00 ET 58.0000 168.000 996 tokyo main 220 199 _O____________ -1 58.0000 168.000 6 996 0 0 0 27 90
1967206N15153 1967 55 WP MM ELLEN 1967-08-05 09:00:00 ET 58.0735 170.553 main 199 199 _P____________ -1 58.0735 170.553 6 996 0 0 26 90
1967206N15153 1967 55 WP MM ELLEN 1967-08-05 12:00:00 ET 58.0000 173.000 996 tokyo main 260 260 _O____________ -1 58.0000 173.000 6 996 0 0 0 24 102
1967206N15153 1967 55 WP MM ELLEN 1967-08-05 15:00:00 ET 57.5647 175.061 main 374 374 _P____________ -1 57.5647 175.061 6 996 0 0 24 114
1967206N15153 1967 55 WP MM ELLEN 1967-08-05 18:00:00 ET 57.0000 177.100 996 tokyo main 507 507 _O____________ -1 57.0000 177.100 6 996 0 0 0 26 114
1967206N15153 1967 55 WP MM ELLEN 1967-08-05 21:00:00 ET 56.4900 179.456 main 637 637 _P____________ -1 56.4900 179.456 6 996 0 0 29 110
1967206N15153 1967 55 EP CP ELLEN 1967-08-06 00:00:00 ET 56.0000 182.000 main 670 _O____________ -1 56.0000 182.000 6 996 0 0 0 30 109

Digital Typhoon Data and Search

About IBTrACS Database

This database is a web-friendly format of International Best Track Archive for Climate Stewardship (IBTrACS), a global best track data archive curated by NOAA dating back to 1842.

Updated: 2021-12-03